Time;durP1;ratioP1;P1;durP2;ratioP2;P2;SDS_P1;SDS_P2;PMS_P1;PMS_P2;Temp;Humidity;BMP_temperature;BMP_pressure;BME280_temperature;BME280_humidity;BME280_pressure;Samples;Min_cycle;Max_cycle;Signal;HPM_P1;HPM_P2
2024/03/28 06:16:34;;;;;;;0.10;0.10;;;;;;;;;;6190843;22;20027;-87
2024/03/28 06:39:26;;;;;;;0.63;0.10;;;;;;;;;;6270543;22;20028;-87
2024/03/28 16:19:31;;;;;;;0.00;0.00;;;;;;;;;;6255770;22;20105;-89
2024/03/28 17:37:23;;;;;;;0.10;0.08;;;;;;;;;;6271344;22;20031;-85
2024/03/28 18:01:09;;;;;;;0.15;0.10;;;;;;;;;;6270834;22;20051;-84
2024/03/28 18:03:35;;;;;;;0.00;0.00;;;;;;;;;;6246989;22;20012;-83
2024/03/28 18:06:04;;;;;;;0.00;0.00;;;;;;;;;;6246000;22;20019;-82
2024/03/28 18:08:34;;;;;;;0.25;0.25;;;;;;;;;;6245240;22;20431;-82
2024/03/28 18:14:35;;;;;;;0.08;0.00;;;;;;;;;;5099050;28;20032;-83
2024/03/28 18:17:01;;;;;;;0.20;0.13;;;;;;;;;;5098141;28;20548;-83
2024/03/28 18:19:30;;;;;;;0.55;0.30;;;;;;;;;;5086616;28;20378;-83
2024/03/28 18:25:12;;;;;;;;;;;;;;;;;;;;;
2024/03/28 18:27:56;;;;;;;0.08;0.08;;;;;;;;;;5088162;28;20044;-85
2024/03/28 18:30:23;;;;;;;0.30;0.20;;;;;;;;;;5088230;28;20082;-85
2024/03/28 18:32:49;;;;;;;0.10;0.10;;;;;;;;;;5066639;28;20037;-83
2024/03/28 18:35:19;;;;;;;0.65;0.35;;;;;;;;;;5069630;28;20469;-83
2024/03/28 18:37:48;;;;;;;0.88;0.20;;;;;;;;;;5073731;28;20036;-85
2024/03/28 18:40:30;;;;;;;0.00;0.00;;;;;;;;;;5069528;28;20064;-83
2024/03/28 18:42:59;;;;;;;1.90;0.52;;;;;;;;;;5061911;28;20504;-85
2024/03/28 18:48:31;;;;;;;0.57;0.30;;;;;;;;;;5060767;28;20174;-85
2024/03/28 18:51:00;;;;;;;0.38;0.10;;;;;;;;;;5073731;28;20390;-84
2024/03/28 18:53:26;;;;;;;0.70;0.55;;;;;;;;;;5065169;28;20409;-85
2024/03/28 18:55:56;;;;;;;0.52;0.45;;;;;;;;;;5055276;28;20040;-85
2024/03/28 18:58:41;;;;;;;0.40;0.20;;;;;;;;;;5058502;28;20032;-84
2024/03/28 19:01:07;;;;;;;0.75;0.55;;;;;;;;;;5072294;28;20047;-85
2024/03/28 19:03:33;;;;;;;0.00;0.00;;;;;;;;;;5069247;28;20636;-85
2024/03/28 19:06:02;;;;;;;0.90;0.20;;;;;;;;;;5062716;28;20105;-85
2024/03/28 19:08:34;;;;;;;0.50;0.30;;;;;;;;;;5068749;28;20024;-85
2024/03/28 19:11:02;;;;;;;0.20;0.10;;;;;;;;;;5063638;28;20036;-85
2024/03/28 19:13:34;;;;;;;3.03;0.35;;;;;;;;;;5052409;28;20707;-88
2024/03/28 19:16:03;;;;;;;0.20;0.10;;;;;;;;;;5063121;28;20394;-86
2024/03/28 19:18:31;;;;;;;1.48;0.63;;;;;;;;;;5063934;28;20470;-86
2024/03/28 19:20:59;;;;;;;0.00;0.00;;;;;;;;;;5052365;28;20811;-85
2024/03/28 19:23:27;;;;;;;0.00;0.00;;;;;;;;;;5066549;28;20130;-85
2024/03/28 19:25:55;;;;;;;0.90;0.38;;;;;;;;;;5066804;28;20389;-84
2024/03/28 19:28:21;;;;;;;0.03;0.00;;;;;;;;;;5052569;28;20029;-85
2024/03/28 19:30:53;;;;;;;0.00;0.00;;;;;;;;;;5053311;28;20032;-87
2024/03/28 19:33:19;;;;;;;0.50;0.20;;;;;;;;;;5057081;28;20033;-85
2024/03/28 19:35:51;;;;;;;0.43;0.15;;;;;;;;;;5051074;28;20308;-85
2024/03/28 19:41:16;;;;;;;2.22;0.57;;;;;;;;;;5064811;28;20041;-86
2024/03/28 19:43:42;;;;;;;0.20;0.10;;;;;;;;;;5037087;28;20491;-86
2024/03/28 19:46:10;;;;;;;1.55;0.35;;;;;;;;;;5062957;28;20036;-85
2024/03/28 19:48:36;;;;;;;0.30;0.20;;;;;;;;;;5037777;28;20422;-85
2024/03/28 19:51:08;;;;;;;1.13;0.30;;;;;;;;;;5047631;28;20043;-86
2024/03/28 19:53:34;;;;;;;;;;;;;;;;;;5054638;28;20035;-86
2024/03/28 19:56:03;;;;;;;0.15;0.08;;;;;;;;;;5049721;28;20281;-87
2024/03/28 19:58:29;;;;;;;0.47;0.10;;;;;;;;;;5051899;28;20037;-86
2024/03/28 20:00:56;;;;;;;1.05;0.68;;;;;;;;;;5053465;28;20028;-87
2024/03/28 20:03:22;;;;;;;0.98;0.28;;;;;;;;;;5054177;28;20029;-87
2024/03/28 20:05:48;;;;;;;0.08;0.08;;;;;;;;;;5046158;28;20110;-86
2024/03/28 20:08:14;;;;;;;0.13;0.00;;;;;;;;;;5069499;28;20546;-86
2024/03/28 20:10:40;;;;;;;0.00;0.00;;;;;;;;;;5040303;28;20032;-86
2024/03/28 20:13:06;;;;;;;4.55;0.13;;;;;;;;;;5055327;28;20032;-86
2024/03/28 20:15:33;;;;;;;0.00;0.00;;;;;;;;;;5071264;28;20462;-86
2024/03/28 20:17:59;;;;;;;0.95;0.13;;;;;;;;;;5055560;28;20147;-86
2024/03/28 20:20:25;;;;;;;0.00;0.00;;;;;;;;;;5068622;28;20572;-86
2024/03/28 20:22:51;;;;;;;0.00;0.00;;;;;;;;;;5071541;28;20048;-85
2024/03/28 20:25:17;;;;;;;0.25;0.15;;;;;;;;;;5054331;28;20048;-87
2024/03/28 20:27:44;;;;;;;0.00;0.00;;;;;;;;;;5042411;28;20033;-87
2024/03/28 20:30:11;;;;;;;3.83;0.28;;;;;;;;;;5052587;28;20075;-86
2024/03/28 20:32:38;;;;;;;0.10;0.10;;;;;;;;;;5060090;28;20025;-87
2024/03/28 20:35:05;;;;;;;0.90;0.17;;;;;;;;;;5059129;28;20040;-88
2024/03/28 20:37:31;;;;;;;0.60;0.17;;;;;;;;;;5042561;28;20028;-87
2024/03/28 20:39:58;;;;;;;0.28;0.08;;;;;;;;;;5066690;28;20086;-86
2024/03/28 20:42:25;;;;;;;0.05;0.00;;;;;;;;;;5042434;28;20040;-87
2024/03/28 20:44:55;;;;;;;0.45;0.15;;;;;;;;;;5052809;28;20131;-86
2024/03/28 20:47:24;;;;;;;0.08;0.08;;;;;;;;;;5048716;28;20150;-87
2024/03/28 20:49:50;;;;;;;2.03;0.22;;;;;;;;;;5053592;28;20383;-87
2024/03/28 20:52:16;;;;;;;0.10;0.08;;;;;;;;;;5067439;28;20116;-86
2024/03/28 20:54:42;;;;;;;2.63;0.75;;;;;;;;;;5062457;28;20047;-86
2024/03/28 20:57:09;;;;;;;0.43;0.35;;;;;;;;;;5052173;28;20365;-87
2024/03/28 20:59:38;;;;;;;1.55;0.15;;;;;;;;;;5056954;28;20087;-85
2024/03/28 21:02:04;;;;;;;0.77;0.30;;;;;;;;;;5047650;28;20035;-87
2024/03/28 21:04:32;;;;;;;0.17;0.13;;;;;;;;;;5051581;28;20036;-86
2024/03/28 21:12:10;;;;;;;0.38;0.20;;;;;;;;;;5062999;28;20120;-84
2024/03/28 21:14:37;;;;;;;0.52;0.35;;;;;;;;;;5055156;28;20043;-85
2024/03/28 21:17:08;;;;;;;0.10;0.00;;;;;;;;;;5048869;28;20451;-87
2024/03/28 21:19:34;;;;;;;0.75;0.40;;;;;;;;;;5046606;28;20067;-86
2024/03/28 21:22:00;;;;;;;0.15;0.05;;;;;;;;;;5046629;28;20033;-85
2024/03/28 21:24:26;;;;;;;0.50;0.22;;;;;;;;;;5045106;28;20036;-87
2024/03/28 21:26:55;;;;;;;0.10;0.00;;;;;;;;;;5047799;28;20064;-87
2024/03/28 21:29:21;;;;;;;1.70;0.13;;;;;;;;;;5047648;28;20051;-86
2024/03/28 21:31:47;;;;;;;0.28;0.08;;;;;;;;;;5065425;28;20029;-86
2024/03/28 21:34:13;;;;;;;0.50;0.40;;;;;;;;;;5045208;28;20850;-86
2024/03/28 21:36:39;;;;;;;0.63;0.40;;;;;;;;;;5045324;28;20031;-86
2024/03/28 21:39:08;;;;;;;1.52;0.17;;;;;;;;;;5058608;28;20033;-86
2024/03/28 21:41:35;;;;;;;0.20;0.00;;;;;;;;;;5034706;28;20037;-86
2024/03/28 21:44:01;;;;;;;0.90;0.17;;;;;;;;;;5039348;28;20394;-86
2024/03/28 21:46:27;;;;;;;0.10;0.10;;;;;;;;;;5042927;28;20016;-86
2024/03/28 21:48:53;;;;;;;0.00;0.00;;;;;;;;;;5054567;28;20525;-86
2024/03/28 21:51:20;;;;;;;0.32;0.22;;;;;;;;;;5033173;28;20052;-86
2024/03/28 21:53:46;;;;;;;1.00;0.13;;;;;;;;;;5065581;28;20041;-87
2024/03/28 21:56:12;;;;;;;0.10;0.10;;;;;;;;;;5038179;28;20035;-86
2024/03/28 21:58:38;;;;;;;0.90;0.10;;;;;;;;;;5045817;28;20045;-84
2024/03/28 22:01:08;;;;;;;0.00;0.00;;;;;;;;;;5065705;28;20471;-86
2024/03/28 22:03:34;;;;;;;0.73;0.57;;;;;;;;;;5059483;28;20037;-85
2024/03/28 22:06:01;;;;;;;0.32;0.30;;;;;;;;;;5050367;28;20029;-86
2024/03/28 22:08:28;;;;;;;0.10;0.10;;;;;;;;;;5041678;28;20041;-86
2024/03/28 22:10:54;;;;;;;0.70;0.10;;;;;;;;;;5052478;28;20056;-86
2024/03/28 22:13:20;;;;;;;2.28;0.10;;;;;;;;;;5035134;28;20719;-86
2024/03/28 22:15:55;;;;;;;0.32;0.17;;;;;;;;;;5046966;28;20040;-86
2024/03/28 22:18:21;;;;;;;0.10;0.00;;;;;;;;;;5045333;28;20044;-86
2024/03/28 22:20:47;;;;;;;0.50;0.22;;;;;;;;;;5047255;28;20636;-86
2024/03/28 22:23:13;;;;;;;1.65;0.20;;;;;;;;;;5049303;28;20048;-86
2024/03/28 22:25:39;;;;;;;0.00;0.00;;;;;;;;;;5061612;28;20155;-85
2024/03/28 22:28:05;;;;;;;1.27;0.55;;;;;;;;;;5064938;28;20033;-87
2024/03/28 22:30:34;;;;;;;0.10;0.00;;;;;;;;;;5048765;28;20036;-87
2024/03/28 22:33:00;;;;;;;0.15;0.10;;;;;;;;;;5046952;28;20145;-85
2024/03/28 22:35:26;;;;;;;0.10;0.10;;;;;;;;;;5048316;28;20143;-86
2024/03/28 22:37:52;;;;;;;0.00;0.00;;;;;;;;;;5043676;28;20029;-86
2024/03/28 22:40:18;;;;;;;3.38;0.75;;;;;;;;;;5064680;28;20033;-86
2024/03/28 22:42:44;;;;;;;1.02;0.10;;;;;;;;;;5048649;28;20068;-86
2024/03/28 22:45:12;;;;;;;0.50;0.43;;;;;;;;;;5058084;28;20071;-86
2024/03/28 22:47:38;;;;;;;0.00;0.00;;;;;;;;;;5051852;28;20029;-85
2024/03/28 22:50:04;;;;;;;0.38;0.10;;;;;;;;;;5036348;28;20029;-86
2024/03/28 22:52:30;;;;;;;0.17;0.10;;;;;;;;;;5055945;28;20029;-85
2024/03/28 22:54:56;;;;;;;0.30;0.00;;;;;;;;;;5060648;28;20041;-86
2024/03/28 22:57:22;;;;;;;0.20;0.20;;;;;;;;;;5044354;28;20464;-85
2024/03/28 22:59:48;;;;;;;9.73;0.10;;;;;;;;;;5072079;28;20078;-85
2024/03/28 23:02:14;;;;;;;0.52;0.13;;;;;;;;;;5061312;28;20602;-86
2024/03/28 23:04:40;;;;;;;0.10;0.00;;;;;;;;;;5068134;28;20141;-85
2024/03/28 23:07:07;;;;;;;0.08;0.00;;;;;;;;;;5045456;28;20041;-86
2024/03/28 23:09:33;;;;;;;0.20;0.10;;;;;;;;;;5063403;28;20116;-86
2024/03/28 23:11:59;;;;;;;0.10;0.00;;;;;;;;;;5061033;28;20020;-86
2024/03/28 23:14:26;;;;;;;0.73;0.10;;;;;;;;;;5037168;28;20660;-85
2024/03/28 23:16:52;;;;;;;0.65;0.38;;;;;;;;;;5050185;28;20119;-86
2024/03/28 23:19:18;;;;;;;2.75;0.52;;;;;;;;;;5041564;28;20140;-86
2024/03/28 23:21:44;;;;;;;1.90;0.40;;;;;;;;;;5045752;28;20024;-86
2024/03/28 23:24:10;;;;;;;0.00;0.00;;;;;;;;;;5049812;28;20033;-86
2024/03/28 23:26:36;;;;;;;0.00;0.00;;;;;;;;;;5037366;28;20160;-86
2024/03/28 23:29:02;;;;;;;0.50;0.43;;;;;;;;;;5048571;28;20021;-86
2024/03/28 23:31:28;;;;;;;0.63;0.17;;;;;;;;;;5062996;28;20476;-86
2024/03/28 23:33:54;;;;;;;0.20;0.20;;;;;;;;;;5038912;28;20029;-86
2024/03/28 23:36:20;;;;;;;2.85;0.63;;;;;;;;;;5048100;28;20598;-86
2024/03/28 23:38:46;;;;;;;0.30;0.10;;;;;;;;;;5052980;28;20509;-86
2024/03/28 23:41:13;;;;;;;0.57;0.40;;;;;;;;;;5059258;28;20038;-86
2024/03/28 23:43:40;;;;;;;4.63;0.40;;;;;;;;;;5052884;28;20040;-86
2024/03/28 23:46:06;;;;;;;1.77;0.50;;;;;;;;;;5050889;28;20041;-86
2024/03/28 23:48:32;;;;;;;3.10;0.52;;;;;;;;;;5043498;28;20040;-86
2024/03/28 23:50:58;;;;;;;0.08;0.03;;;;;;;;;;5045480;28;20036;-86
2024/03/28 23:53:24;;;;;;;0.00;0.00;;;;;;;;;;5045427;28;20129;-86
2024/03/28 23:55:50;;;;;;;0.15;0.10;;;;;;;;;;5039200;28;20060;-86
2024/03/28 23:58:17;;;;;;;0.00;0.00;;;;;;;;;;5041132;28;20157;-86
